sensor_id;sensor_type;location;lat;lon;timestamp;P1;durP1;ratioP1;P2;durP2;ratioP2
40286;SDS011;25998;46.604;13.610;2023-09-19T00:02:35;2.67;;;1.30;;
40286;SDS011;25998;46.604;13.610;2023-09-19T00:05:46;2.55;;;1.50;;
40286;SDS011;25998;46.604;13.610;2023-09-19T00:08:58;1.70;;;1.20;;
40286;SDS011;25998;46.604;13.610;2023-09-19T00:12:10;3.40;;;1.50;;
40286;SDS011;25998;46.604;13.610;2023-09-19T00:15:23;2.55;;;1.30;;
40286;SDS011;25998;46.604;13.610;2023-09-19T00:18:34;2.80;;;1.30;;
40286;SDS011;25998;46.604;13.610;2023-09-19T00:21:45;2.50;;;1.40;;
40286;SDS011;25998;46.604;13.610;2023-09-19T00:24:57;4.90;;;1.48;;
40286;SDS011;25998;46.604;13.610;2023-09-19T00:28:08;3.17;;;1.40;;
40286;SDS011;25998;46.604;13.610;2023-09-19T00:31:19;2.22;;;1.20;;
40286;SDS011;25998;46.604;13.610;2023-09-19T00:34:35;2.40;;;1.30;;
40286;SDS011;25998;46.604;13.610;2023-09-19T00:37:46;4.13;;;1.20;;
40286;SDS011;25998;46.604;13.610;2023-09-19T00:40:57;3.83;;;1.80;;
40286;SDS011;25998;46.604;13.610;2023-09-19T00:44:10;3.28;;;1.50;;
40286;SDS011;25998;46.604;13.610;2023-09-19T00:47:20;2.00;;;1.15;;
40286;SDS011;25998;46.604;13.610;2023-09-19T00:50:31;1.85;;;1.15;;
40286;SDS011;25998;46.604;13.610;2023-09-19T00:53:43;3.55;;;1.60;;
40286;SDS011;25998;46.604;13.610;2023-09-19T00:56:56;2.88;;;1.60;;
40286;SDS011;25998;46.604;13.610;2023-09-19T01:00:07;3.33;;;2.05;;
40286;SDS011;25998;46.604;13.610;2023-09-19T01:03:25;5.15;;;1.35;;
40286;SDS011;25998;46.604;13.610;2023-09-19T01:06:36;3.53;;;1.20;;
40286;SDS011;25998;46.604;13.610;2023-09-19T01:09:47;7.60;;;1.30;;
40286;SDS011;25998;46.604;13.610;2023-09-19T01:20:01;2.20;;;1.13;;
40286;SDS011;25998;46.604;13.610;2023-09-19T01:31:12;3.58;;;1.60;;
40286;SDS011;25998;46.604;13.610;2023-09-19T01:34:24;3.22;;;1.27;;
40286;SDS011;25998;46.604;13.610;2023-09-19T01:37:36;4.05;;;1.27;;
40286;SDS011;25998;46.604;13.610;2023-09-19T01:40:51;3.80;;;1.25;;
40286;SDS011;25998;46.604;13.610;2023-09-19T01:44:17;3.05;;;1.10;;
40286;SDS011;25998;46.604;13.610;2023-09-19T01:47:51;2.85;;;1.40;;
40286;SDS011;25998;46.604;13.610;2023-09-19T01:51:09;1.98;;;1.40;;
40286;SDS011;25998;46.604;13.610;2023-09-19T01:54:26;3.33;;;1.40;;
40286;SDS011;25998;46.604;13.610;2023-09-19T01:57:48;3.85;;;1.50;;
40286;SDS011;25998;46.604;13.610;2023-09-19T02:01:20;3.80;;;1.40;;
40286;SDS011;25998;46.604;13.610;2023-09-19T02:04:34;3.83;;;1.58;;
40286;SDS011;25998;46.604;13.610;2023-09-19T02:07:45;2.42;;;0.95;;
40286;SDS011;25998;46.604;13.610;2023-09-19T02:10:56;2.65;;;1.38;;
40286;SDS011;25998;46.604;13.610;2023-09-19T02:14:07;8.98;;;1.38;;
40286;SDS011;25998;46.604;13.610;2023-09-19T02:17:18;4.03;;;1.17;;
40286;SDS011;25998;46.604;13.610;2023-09-19T02:20:29;2.40;;;1.50;;
40286;SDS011;25998;46.604;13.610;2023-09-19T02:23:40;3.03;;;1.58;;
40286;SDS011;25998;46.604;13.610;2023-09-19T02:26:51;3.58;;;1.17;;
40286;SDS011;25998;46.604;13.610;2023-09-19T02:30:03;3.75;;;1.40;;
40286;SDS011;25998;46.604;13.610;2023-09-19T02:33:16;3.75;;;1.50;;
40286;SDS011;25998;46.604;13.610;2023-09-19T02:36:29;4.03;;;1.30;;
40286;SDS011;25998;46.604;13.610;2023-09-19T02:39:41;2.90;;;1.15;;
40286;SDS011;25998;46.604;13.610;2023-09-19T02:42:53;3.25;;;1.13;;
40286;SDS011;25998;46.604;13.610;2023-09-19T02:46:05;3.42;;;1.20;;
40286;SDS011;25998;46.604;13.610;2023-09-19T02:49:16;1.95;;;1.20;;
40286;SDS011;25998;46.604;13.610;2023-09-19T02:52:30;2.08;;;1.33;;
40286;SDS011;25998;46.604;13.610;2023-09-19T02:55:41;4.03;;;1.38;;
40286;SDS011;25998;46.604;13.610;2023-09-19T02:58:52;2.58;;;1.30;;
40286;SDS011;25998;46.604;13.610;2023-09-19T03:02:05;2.40;;;1.10;;
40286;SDS011;25998;46.604;13.610;2023-09-19T03:05:16;2.25;;;1.10;;
40286;SDS011;25998;46.604;13.610;2023-09-19T03:08:28;2.58;;;1.20;;
40286;SDS011;25998;46.604;13.610;2023-09-19T03:11:39;2.72;;;1.20;;
40286;SDS011;25998;46.604;13.610;2023-09-19T03:14:52;2.70;;;1.10;;
40286;SDS011;25998;46.604;13.610;2023-09-19T03:18:03;1.98;;;1.05;;
40286;SDS011;25998;46.604;13.610;2023-09-19T03:21:14;4.72;;;1.40;;
40286;SDS011;25998;46.604;13.610;2023-09-19T03:24:27;3.28;;;1.25;;
40286;SDS011;25998;46.604;13.610;2023-09-19T03:27:39;2.60;;;1.27;;
40286;SDS011;25998;46.604;13.610;2023-09-19T03:31:00;2.90;;;1.30;;
40286;SDS011;25998;46.604;13.610;2023-09-19T03:34:12;3.25;;;1.40;;
40286;SDS011;25998;46.604;13.610;2023-09-19T03:37:23;3.40;;;1.20;;
40286;SDS011;25998;46.604;13.610;2023-09-19T03:40:33;2.72;;;1.48;;
40286;SDS011;25998;46.604;13.610;2023-09-19T03:43:48;2.13;;;1.40;;
40286;SDS011;25998;46.604;13.610;2023-09-19T03:46:59;2.30;;;1.33;;
40286;SDS011;25998;46.604;13.610;2023-09-19T03:50:10;2.30;;;1.30;;
40286;SDS011;25998;46.604;13.610;2023-09-19T03:53:21;2.53;;;1.30;;
40286;SDS011;25998;46.604;13.610;2023-09-19T03:56:32;4.53;;;1.40;;
40286;SDS011;25998;46.604;13.610;2023-09-19T03:59:43;3.50;;;1.40;;
40286;SDS011;25998;46.604;13.610;2023-09-19T04:02:54;3.88;;;1.27;;
40286;SDS011;25998;46.604;13.610;2023-09-19T04:06:06;3.88;;;1.15;;
40286;SDS011;25998;46.604;13.610;2023-09-19T04:09:17;1.67;;;1.08;;
40286;SDS011;25998;46.604;13.610;2023-09-19T04:12:28;4.18;;;1.60;;
40286;SDS011;25998;46.604;13.610;2023-09-19T04:15:39;4.85;;;1.48;;
40286;SDS011;25998;46.604;13.610;2023-09-19T04:18:51;2.58;;;1.30;;
40286;SDS011;25998;46.604;13.610;2023-09-19T04:22:02;5.40;;;1.73;;
40286;SDS011;25998;46.604;13.610;2023-09-19T04:25:14;3.08;;;1.20;;
40286;SDS011;25998;46.604;13.610;2023-09-19T04:28:25;2.33;;;1.38;;
40286;SDS011;25998;46.604;13.610;2023-09-19T04:31:37;4.32;;;1.52;;
40286;SDS011;25998;46.604;13.610;2023-09-19T04:34:50;5.10;;;1.50;;
40286;SDS011;25998;46.604;13.610;2023-09-19T04:38:01;3.47;;;1.05;;
40286;SDS011;25998;46.604;13.610;2023-09-19T04:41:13;2.90;;;1.27;;
40286;SDS011;25998;46.604;13.610;2023-09-19T04:44:25;4.05;;;1.50;;
40286;SDS011;25998;46.604;13.610;2023-09-19T04:47:36;4.80;;;1.52;;
40286;SDS011;25998;46.604;13.610;2023-09-19T04:50:50;2.50;;;1.35;;
40286;SDS011;25998;46.604;13.610;2023-09-19T04:54:01;4.88;;;1.40;;
40286;SDS011;25998;46.604;13.610;2023-09-19T04:57:13;2.10;;;1.20;;
40286;SDS011;25998;46.604;13.610;2023-09-19T05:00:24;5.85;;;1.45;;
40286;SDS011;25998;46.604;13.610;2023-09-19T05:03:35;4.63;;;1.25;;
40286;SDS011;25998;46.604;13.610;2023-09-19T05:06:46;2.92;;;1.20;;
40286;SDS011;25998;46.604;13.610;2023-09-19T05:09:58;2.67;;;1.45;;
40286;SDS011;25998;46.604;13.610;2023-09-19T05:13:09;3.58;;;1.20;;
40286;SDS011;25998;46.604;13.610;2023-09-19T05:16:20;4.43;;;1.38;;
40286;SDS011;25998;46.604;13.610;2023-09-19T05:19:32;9.93;;;1.95;;
40286;SDS011;25998;46.604;13.610;2023-09-19T05:22:44;7.32;;;1.75;;
40286;SDS011;25998;46.604;13.610;2023-09-19T05:25:56;3.83;;;1.60;;
40286;SDS011;25998;46.604;13.610;2023-09-19T05:29:10;6.80;;;1.30;;
40286;SDS011;25998;46.604;13.610;2023-09-19T05:32:21;6.20;;;1.45;;
40286;SDS011;25998;46.604;13.610;2023-09-19T05:35:33;10.27;;;2.22;;
40286;SDS011;25998;46.604;13.610;2023-09-19T05:38:43;5.53;;;2.00;;
40286;SDS011;25998;46.604;13.610;2023-09-19T05:41:54;9.73;;;2.70;;
40286;SDS011;25998;46.604;13.610;2023-09-19T05:45:07;6.75;;;2.03;;
40286;SDS011;25998;46.604;13.610;2023-09-19T05:48:22;12.27;;;2.63;;
40286;SDS011;25998;46.604;13.610;2023-09-19T05:51:33;10.32;;;2.22;;
40286;SDS011;25998;46.604;13.610;2023-09-19T05:54:44;9.48;;;2.20;;
40286;SDS011;25998;46.604;13.610;2023-09-19T05:57:54;5.97;;;1.77;;
40286;SDS011;25998;46.604;13.610;2023-09-19T06:01:05;5.25;;;1.42;;
40286;SDS011;25998;46.604;13.610;2023-09-19T06:04:17;6.32;;;1.60;;
40286;SDS011;25998;46.604;13.610;2023-09-19T06:07:29;4.50;;;1.58;;
40286;SDS011;25998;46.604;13.610;2023-09-19T06:10:46;5.43;;;1.67;;
40286;SDS011;25998;46.604;13.610;2023-09-19T06:13:57;8.18;;;2.30;;
40286;SDS011;25998;46.604;13.610;2023-09-19T06:17:10;7.05;;;2.30;;
40286;SDS011;25998;46.604;13.610;2023-09-19T06:20:21;3.60;;;2.55;;
40286;SDS011;25998;46.604;13.610;2023-09-19T06:23:33;3.95;;;2.92;;
40286;SDS011;25998;46.604;13.610;2023-09-19T06:26:45;2.90;;;2.22;;
40286;SDS011;25998;46.604;13.610;2023-09-19T06:29:56;9.88;;;2.88;;
40286;SDS011;25998;46.604;13.610;2023-09-19T06:33:07;4.47;;;2.28;;
40286;SDS011;25998;46.604;13.610;2023-09-19T06:36:18;3.92;;;2.00;;
40286;SDS011;25998;46.604;13.610;2023-09-19T06:39:29;6.03;;;1.70;;
40286;SDS011;25998;46.604;13.610;2023-09-19T06:42:45;3.53;;;1.60;;
40286;SDS011;25998;46.604;13.610;2023-09-19T06:46:03;5.03;;;2.07;;
40286;SDS011;25998;46.604;13.610;2023-09-19T06:49:14;3.40;;;2.00;;
40286;SDS011;25998;46.604;13.610;2023-09-19T06:52:25;12.48;;;3.60;;
40286;SDS011;25998;46.604;13.610;2023-09-19T06:55:38;4.53;;;2.92;;
40286;SDS011;25998;46.604;13.610;2023-09-19T06:58:48;5.47;;;3.35;;
40286;SDS011;25998;46.604;13.610;2023-09-19T07:01:59;4.22;;;2.30;;
40286;SDS011;25998;46.604;13.610;2023-09-19T07:05:10;2.80;;;1.80;;
40286;SDS011;25998;46.604;13.610;2023-09-19T07:08:21;3.03;;;2.10;;
40286;SDS011;25998;46.604;13.610;2023-09-19T07:11:32;2.75;;;2.13;;
40286;SDS011;25998;46.604;13.610;2023-09-19T07:14:44;5.07;;;2.33;;
40286;SDS011;25998;46.604;13.610;2023-09-19T07:17:54;2.92;;;2.05;;
40286;SDS011;25998;46.604;13.610;2023-09-19T07:21:06;3.58;;;2.17;;
40286;SDS011;25998;46.604;13.610;2023-09-19T07:24:17;2.92;;;2.30;;
40286;SDS011;25998;46.604;13.610;2023-09-19T07:27:27;3.60;;;2.20;;
40286;SDS011;25998;46.604;13.610;2023-09-19T07:30:38;4.07;;;2.95;;
40286;SDS011;25998;46.604;13.610;2023-09-19T07:33:50;3.70;;;2.10;;
40286;SDS011;25998;46.604;13.610;2023-09-19T07:37:01;3.75;;;2.08;;
40286;SDS011;25998;46.604;13.610;2023-09-19T07:40:13;3.42;;;2.28;;
40286;SDS011;25998;46.604;13.610;2023-09-19T07:43:24;2.90;;;1.92;;
40286;SDS011;25998;46.604;13.610;2023-09-19T07:46:35;3.65;;;1.98;;
40286;SDS011;25998;46.604;13.610;2023-09-19T07:49:47;3.53;;;2.17;;
40286;SDS011;25998;46.604;13.610;2023-09-19T07:52:58;3.88;;;1.70;;
40286;SDS011;25998;46.604;13.610;2023-09-19T07:56:09;2.95;;;1.88;;
40286;SDS011;25998;46.604;13.610;2023-09-19T07:59:20;2.95;;;2.08;;
40286;SDS011;25998;46.604;13.610;2023-09-19T08:02:35;2.25;;;1.60;;
40286;SDS011;25998;46.604;13.610;2023-09-19T08:05:49;3.72;;;1.63;;
40286;SDS011;25998;46.604;13.610;2023-09-19T08:09:00;2.63;;;1.70;;
40286;SDS011;25998;46.604;13.610;2023-09-19T08:12:17;2.45;;;1.80;;
40286;SDS011;25998;46.604;13.610;2023-09-19T08:15:34;4.70;;;1.92;;
40286;SDS011;25998;46.604;13.610;2023-09-19T08:18:48;3.67;;;2.25;;
40286;SDS011;25998;46.604;13.610;2023-09-19T08:25:15;3.42;;;2.10;;
40286;SDS011;25998;46.604;13.610;2023-09-19T08:28:29;3.08;;;1.70;;
40286;SDS011;25998;46.604;13.610;2023-09-19T08:31:40;3.78;;;1.80;;
40286;SDS011;25998;46.604;13.610;2023-09-19T08:34:51;2.83;;;1.60;;
40286;SDS011;25998;46.604;13.610;2023-09-19T08:38:01;4.50;;;1.80;;
40286;SDS011;25998;46.604;13.610;2023-09-19T08:41:14;2.80;;;1.92;;
40286;SDS011;25998;46.604;13.610;2023-09-19T08:44:28;4.93;;;2.22;;
40286;SDS011;25998;46.604;13.610;2023-09-19T08:47:53;2.65;;;1.80;;
40286;SDS011;25998;46.604;13.610;2023-09-19T08:51:25;3.63;;;1.60;;
40286;SDS011;25998;46.604;13.610;2023-09-19T08:54:39;2.65;;;1.60;;
40286;SDS011;25998;46.604;13.610;2023-09-19T08:57:51;3.08;;;1.63;;
40286;SDS011;25998;46.604;13.610;2023-09-19T09:01:08;3.72;;;1.90;;
40286;SDS011;25998;46.604;13.610;2023-09-19T09:04:22;2.95;;;1.63;;
40286;SDS011;25998;46.604;13.610;2023-09-19T09:07:33;4.10;;;2.25;;
40286;SDS011;25998;46.604;13.610;2023-09-19T09:10:45;3.92;;;1.70;;
40286;SDS011;25998;46.604;13.610;2023-09-19T09:13:56;2.53;;;1.55;;
40286;SDS011;25998;46.604;13.610;2023-09-19T09:17:07;4.05;;;1.48;;
40286;SDS011;25998;46.604;13.610;2023-09-19T09:20:19;3.42;;;1.67;;
40286;SDS011;25998;46.604;13.610;2023-09-19T09:23:30;4.68;;;1.45;;
40286;SDS011;25998;46.604;13.610;2023-09-19T09:26:42;3.35;;;1.65;;
40286;SDS011;25998;46.604;13.610;2023-09-19T09:29:53;3.03;;;1.52;;
40286;SDS011;25998;46.604;13.610;2023-09-19T09:33:08;3.42;;;1.83;;
40286;SDS011;25998;46.604;13.610;2023-09-19T09:36:37;3.85;;;1.50;;
40286;SDS011;25998;46.604;13.610;2023-09-19T09:39:52;2.95;;;1.63;;
40286;SDS011;25998;46.604;13.610;2023-09-19T09:43:25;4.93;;;1.77;;
40286;SDS011;25998;46.604;13.610;2023-09-19T09:46:48;5.43;;;1.90;;
40286;SDS011;25998;46.604;13.610;2023-09-19T09:49:59;2.65;;;1.52;;
40286;SDS011;25998;46.604;13.610;2023-09-19T09:56:54;5.22;;;1.90;;
40286;SDS011;25998;46.604;13.610;2023-09-19T10:00:10;4.25;;;3.70;;
40286;SDS011;25998;46.604;13.610;2023-09-19T10:03:21;3.47;;;2.22;;
40286;SDS011;25998;46.604;13.610;2023-09-19T10:06:48;4.60;;;1.95;;
40286;SDS011;25998;46.604;13.610;2023-09-19T10:10:01;3.28;;;1.70;;
40286;SDS011;25998;46.604;13.610;2023-09-19T10:13:31;2.30;;;1.60;;
40286;SDS011;25998;46.604;13.610;2023-09-19T10:16:47;2.78;;;1.88;;
40286;SDS011;25998;46.604;13.610;2023-09-19T10:19:59;2.28;;;1.70;;
40286;SDS011;25998;46.604;13.610;2023-09-19T10:23:19;2.50;;;1.67;;
40286;SDS011;25998;46.604;13.610;2023-09-19T10:26:36;2.85;;;2.17;;
40286;SDS011;25998;46.604;13.610;2023-09-19T10:29:49;4.40;;;1.95;;
40286;SDS011;25998;46.604;13.610;2023-09-19T10:33:01;3.42;;;2.10;;
40286;SDS011;25998;46.604;13.610;2023-09-19T10:36:14;3.13;;;2.03;;
40286;SDS011;25998;46.604;13.610;2023-09-19T10:39:25;3.65;;;1.90;;
40286;SDS011;25998;46.604;13.610;2023-09-19T10:42:41;2.08;;;1.67;;
40286;SDS011;25998;46.604;13.610;2023-09-19T10:45:53;3.05;;;2.00;;
40286;SDS011;25998;46.604;13.610;2023-09-19T10:49:07;7.45;;;3.10;;
40286;SDS011;25998;46.604;13.610;2023-09-19T10:52:22;4.82;;;2.20;;
40286;SDS011;25998;46.604;13.610;2023-09-19T10:55:36;3.47;;;2.42;;
40286;SDS011;25998;46.604;13.610;2023-09-19T10:58:48;3.25;;;2.30;;
40286;SDS011;25998;46.604;13.610;2023-09-19T11:01:59;3.05;;;2.30;;
40286;SDS011;25998;46.604;13.610;2023-09-19T11:05:25;2.90;;;2.28;;
40286;SDS011;25998;46.604;13.610;2023-09-19T11:08:55;3.05;;;2.40;;
40286;SDS011;25998;46.604;13.610;2023-09-19T11:19:14;5.43;;;3.70;;
40286;SDS011;25998;46.604;13.610;2023-09-19T11:22:36;4.50;;;3.50;;
40286;SDS011;25998;46.604;13.610;2023-09-19T11:26:02;3.97;;;2.95;;
40286;SDS011;25998;46.604;13.610;2023-09-19T11:29:27;4.13;;;2.67;;
40286;SDS011;25998;46.604;13.610;2023-09-19T11:36:34;3.70;;;2.70;;
40286;SDS011;25998;46.604;13.610;2023-09-19T11:40:05;4.03;;;2.80;;
40286;SDS011;25998;46.604;13.610;2023-09-19T11:43:30;6.53;;;2.92;;
40286;SDS011;25998;46.604;13.610;2023-09-19T11:50:04;3.33;;;2.47;;
40286;SDS011;25998;46.604;13.610;2023-09-19T11:53:21;2.78;;;2.47;;
40286;SDS011;25998;46.604;13.610;2023-09-19T11:56:38;3.15;;;2.40;;
40286;SDS011;25998;46.604;13.610;2023-09-19T11:59:51;3.67;;;2.70;;
40286;SDS011;25998;46.604;13.610;2023-09-19T12:03:05;3.63;;;2.60;;
40286;SDS011;25998;46.604;13.610;2023-09-19T12:06:19;3.38;;;2.38;;
40286;SDS011;25998;46.604;13.610;2023-09-19T12:09:32;3.65;;;2.10;;
40286;SDS011;25998;46.604;13.610;2023-09-19T12:12:48;5.18;;;2.40;;
40286;SDS011;25998;46.604;13.610;2023-09-19T12:15:59;2.95;;;2.45;;
40286;SDS011;25998;46.604;13.610;2023-09-19T12:19:20;3.85;;;2.33;;
40286;SDS011;25998;46.604;13.610;2023-09-19T12:22:41;3.20;;;2.55;;
40286;SDS011;25998;46.604;13.610;2023-09-19T12:25:56;3.53;;;2.33;;
40286;SDS011;25998;46.604;13.610;2023-09-19T12:29:10;4.00;;;2.53;;
40286;SDS011;25998;46.604;13.610;2023-09-19T12:32:34;3.30;;;2.25;;
40286;SDS011;25998;46.604;13.610;2023-09-19T12:35:46;3.83;;;2.50;;
40286;SDS011;25998;46.604;13.610;2023-09-19T12:38:58;3.75;;;2.72;;
40286;SDS011;25998;46.604;13.610;2023-09-19T12:42:12;4.15;;;2.45;;
40286;SDS011;25998;46.604;13.610;2023-09-19T12:45:24;3.92;;;2.60;;
40286;SDS011;25998;46.604;13.610;2023-09-19T12:48:35;3.80;;;2.65;;
40286;SDS011;25998;46.604;13.610;2023-09-19T12:51:48;4.93;;;2.92;;
40286;SDS011;25998;46.604;13.610;2023-09-19T12:54:59;3.55;;;2.70;;
40286;SDS011;25998;46.604;13.610;2023-09-19T12:58:14;4.35;;;2.75;;
40286;SDS011;25998;46.604;13.610;2023-09-19T13:01:26;5.50;;;3.03;;
40286;SDS011;25998;46.604;13.610;2023-09-19T13:04:38;3.53;;;2.60;;
40286;SDS011;25998;46.604;13.610;2023-09-19T13:07:50;4.05;;;2.90;;
40286;SDS011;25998;46.604;13.610;2023-09-19T13:14:28;4.43;;;2.70;;
40286;SDS011;25998;46.604;13.610;2023-09-19T13:17:50;5.80;;;2.67;;
40286;SDS011;25998;46.604;13.610;2023-09-19T13:21:06;4.97;;;3.15;;
40286;SDS011;25998;46.604;13.610;2023-09-19T13:24:23;4.45;;;2.92;;
40286;SDS011;25998;46.604;13.610;2023-09-19T13:27:38;3.78;;;2.53;;
40286;SDS011;25998;46.604;13.610;2023-09-19T13:30:48;2.80;;;2.50;;
40286;SDS011;25998;46.604;13.610;2023-09-19T13:33:59;3.72;;;2.30;;
40286;SDS011;25998;46.604;13.610;2023-09-19T13:37:10;3.58;;;2.38;;
40286;SDS011;25998;46.604;13.610;2023-09-19T13:40:23;3.13;;;2.42;;
40286;SDS011;25998;46.604;13.610;2023-09-19T13:43:34;3.88;;;2.42;;
40286;SDS011;25998;46.604;13.610;2023-09-19T13:46:46;3.20;;;2.17;;
40286;SDS011;25998;46.604;13.610;2023-09-19T13:49:56;3.08;;;2.05;;
40286;SDS011;25998;46.604;13.610;2023-09-19T13:53:08;3.10;;;2.05;;
40286;SDS011;25998;46.604;13.610;2023-09-19T13:56:19;3.72;;;2.30;;
40286;SDS011;25998;46.604;13.610;2023-09-19T13:59:30;3.33;;;2.20;;
40286;SDS011;25998;46.604;13.610;2023-09-19T14:02:41;3.00;;;1.98;;
40286;SDS011;25998;46.604;13.610;2023-09-19T14:05:54;3.53;;;1.95;;
40286;SDS011;25998;46.604;13.610;2023-09-19T14:09:05;3.03;;;1.92;;
40286;SDS011;25998;46.604;13.610;2023-09-19T14:12:18;3.22;;;1.90;;
40286;SDS011;25998;46.604;13.610;2023-09-19T14:15:28;3.22;;;1.90;;
40286;SDS011;25998;46.604;13.610;2023-09-19T14:18:39;3.45;;;2.00;;
40286;SDS011;25998;46.604;13.610;2023-09-19T14:21:50;4.55;;;2.38;;
40286;SDS011;25998;46.604;13.610;2023-09-19T14:25:02;3.85;;;2.00;;
40286;SDS011;25998;46.604;13.610;2023-09-19T14:28:16;3.90;;;1.90;;
40286;SDS011;25998;46.604;13.610;2023-09-19T14:31:26;4.50;;;2.08;;
40286;SDS011;25998;46.604;13.610;2023-09-19T14:34:38;2.60;;;1.80;;
40286;SDS011;25998;46.604;13.610;2023-09-19T14:37:52;5.22;;;2.17;;
40286;SDS011;25998;46.604;13.610;2023-09-19T14:41:03;4.63;;;1.90;;
40286;SDS011;25998;46.604;13.610;2023-09-19T14:44:16;3.22;;;2.00;;
40286;SDS011;25998;46.604;13.610;2023-09-19T14:47:27;4.15;;;1.67;;
40286;SDS011;25998;46.604;13.610;2023-09-19T14:50:38;3.78;;;2.30;;
40286;SDS011;25998;46.604;13.610;2023-09-19T14:53:49;3.38;;;2.03;;
40286;SDS011;25998;46.604;13.610;2023-09-19T14:57:00;5.70;;;1.92;;
40286;SDS011;25998;46.604;13.610;2023-09-19T15:00:18;3.00;;;1.83;;
40286;SDS011;25998;46.604;13.610;2023-09-19T15:03:34;5.78;;;2.20;;
40286;SDS011;25998;46.604;13.610;2023-09-19T15:06:49;2.83;;;1.73;;
40286;SDS011;25998;46.604;13.610;2023-09-19T15:10:04;2.83;;;1.90;;
40286;SDS011;25998;46.604;13.610;2023-09-19T15:13:19;3.83;;;1.90;;
40286;SDS011;25998;46.604;13.610;2023-09-19T15:16:30;3.85;;;2.20;;
40286;SDS011;25998;46.604;13.610;2023-09-19T15:19:42;4.30;;;1.75;;
40286;SDS011;25998;46.604;13.610;2023-09-19T15:22:53;2.53;;;1.60;;
40286;SDS011;25998;46.604;13.610;2023-09-19T15:26:04;6.03;;;2.10;;
40286;SDS011;25998;46.604;13.610;2023-09-19T15:29:21;4.00;;;1.90;;
40286;SDS011;25998;46.604;13.610;2023-09-19T15:32:33;2.97;;;2.00;;
40286;SDS011;25998;46.604;13.610;2023-09-19T15:35:43;6.20;;;1.92;;
40286;SDS011;25998;46.604;13.610;2023-09-19T15:38:58;4.10;;;1.98;;
40286;SDS011;25998;46.604;13.610;2023-09-19T15:42:22;7.13;;;2.03;;
40286;SDS011;25998;46.604;13.610;2023-09-19T15:45:32;4.65;;;2.20;;
40286;SDS011;25998;46.604;13.610;2023-09-19T15:48:44;6.43;;;2.25;;
40286;SDS011;25998;46.604;13.610;2023-09-19T15:51:56;4.97;;;1.85;;
40286;SDS011;25998;46.604;13.610;2023-09-19T15:55:06;4.82;;;1.95;;
40286;SDS011;25998;46.604;13.610;2023-09-19T15:58:18;5.55;;;2.10;;
40286;SDS011;25998;46.604;13.610;2023-09-19T16:01:30;3.35;;;2.20;;
40286;SDS011;25998;46.604;13.610;2023-09-19T16:04:40;3.33;;;2.15;;
40286;SDS011;25998;46.604;13.610;2023-09-19T16:07:53;3.67;;;1.75;;
40286;SDS011;25998;46.604;13.610;2023-09-19T16:11:04;2.90;;;1.70;;
40286;SDS011;25998;46.604;13.610;2023-09-19T16:14:15;2.47;;;1.80;;
40286;SDS011;25998;46.604;13.610;2023-09-19T16:17:26;7.00;;;2.10;;
40286;SDS011;25998;46.604;13.610;2023-09-19T16:20:37;3.80;;;1.92;;
40286;SDS011;25998;46.604;13.610;2023-09-19T16:23:50;2.85;;;1.80;;
40286;SDS011;25998;46.604;13.610;2023-09-19T16:27:01;3.72;;;2.10;;
40286;SDS011;25998;46.604;13.610;2023-09-19T16:30:13;3.30;;;1.88;;
40286;SDS011;25998;46.604;13.610;2023-09-19T16:33:24;7.13;;;2.10;;
40286;SDS011;25998;46.604;13.610;2023-09-19T16:36:35;3.15;;;2.00;;
40286;SDS011;25998;46.604;13.610;2023-09-19T16:39:47;4.20;;;1.88;;
40286;SDS011;25998;46.604;13.610;2023-09-19T16:42:58;4.32;;;1.70;;
40286;SDS011;25998;46.604;13.610;2023-09-19T16:46:09;4.30;;;1.77;;
40286;SDS011;25998;46.604;13.610;2023-09-19T16:49:26;3.22;;;1.85;;
40286;SDS011;25998;46.604;13.610;2023-09-19T16:52:38;2.72;;;2.00;;
40286;SDS011;25998;46.604;13.610;2023-09-19T16:55:49;3.38;;;1.83;;
40286;SDS011;25998;46.604;13.610;2023-09-19T16:59:00;4.55;;;1.98;;
40286;SDS011;25998;46.604;13.610;2023-09-19T17:02:14;5.28;;;2.15;;
40286;SDS011;25998;46.604;13.610;2023-09-19T17:05:25;5.30;;;2.13;;
40286;SDS011;25998;46.604;13.610;2023-09-19T17:08:37;4.75;;;2.38;;
40286;SDS011;25998;46.604;13.610;2023-09-19T17:11:48;4.93;;;2.17;;
40286;SDS011;25998;46.604;13.610;2023-09-19T17:15:00;4.63;;;2.30;;
40286;SDS011;25998;46.604;13.610;2023-09-19T17:18:11;3.85;;;1.85;;
40286;SDS011;25998;46.604;13.610;2023-09-19T17:21:22;6.05;;;2.25;;
40286;SDS011;25998;46.604;13.610;2023-09-19T17:24:34;5.43;;;2.20;;
40286;SDS011;25998;46.604;13.610;2023-09-19T17:27:45;5.68;;;2.17;;
40286;SDS011;25998;46.604;13.610;2023-09-19T17:30:57;3.55;;;2.10;;
40286;SDS011;25998;46.604;13.610;2023-09-19T17:34:08;6.03;;;2.03;;
40286;SDS011;25998;46.604;13.610;2023-09-19T17:37:19;5.22;;;2.25;;
40286;SDS011;25998;46.604;13.610;2023-09-19T17:40:37;4.38;;;2.25;;
40286;SDS011;25998;46.604;13.610;2023-09-19T17:43:56;4.40;;;2.10;;
40286;SDS011;25998;46.604;13.610;2023-09-19T17:47:08;5.65;;;2.22;;
40286;SDS011;25998;46.604;13.610;2023-09-19T17:50:19;5.70;;;2.60;;
40286;SDS011;25998;46.604;13.610;2023-09-19T17:53:31;7.35;;;1.90;;
40286;SDS011;25998;46.604;13.610;2023-09-19T17:56:41;3.42;;;2.25;;
40286;SDS011;25998;46.604;13.610;2023-09-19T17:59:52;5.47;;;2.00;;
40286;SDS011;25998;46.604;13.610;2023-09-19T18:03:04;3.38;;;1.80;;
40286;SDS011;25998;46.604;13.610;2023-09-19T18:06:15;4.45;;;2.08;;
40286;SDS011;25998;46.604;13.610;2023-09-19T18:09:26;4.97;;;2.35;;
40286;SDS011;25998;46.604;13.610;2023-09-19T18:12:37;3.72;;;1.88;;
40286;SDS011;25998;46.604;13.610;2023-09-19T18:15:48;5.93;;;2.30;;
40286;SDS011;25998;46.604;13.610;2023-09-19T18:18:59;5.13;;;2.00;;
40286;SDS011;25998;46.604;13.610;2023-09-19T18:22:12;4.40;;;2.25;;
40286;SDS011;25998;46.604;13.610;2023-09-19T18:25:22;3.72;;;1.67;;
40286;SDS011;25998;46.604;13.610;2023-09-19T18:28:36;3.45;;;1.92;;
40286;SDS011;25998;46.604;13.610;2023-09-19T18:31:48;5.00;;;2.42;;
40286;SDS011;25998;46.604;13.610;2023-09-19T18:34:59;3.17;;;1.90;;
40286;SDS011;25998;46.604;13.610;2023-09-19T18:38:10;5.78;;;2.15;;
40286;SDS011;25998;46.604;13.610;2023-09-19T18:41:21;5.55;;;2.40;;
40286;SDS011;25998;46.604;13.610;2023-09-19T18:44:32;5.30;;;1.95;;
40286;SDS011;25998;46.604;13.610;2023-09-19T18:47:43;4.15;;;2.25;;
40286;SDS011;25998;46.604;13.610;2023-09-19T18:50:54;4.43;;;1.90;;
40286;SDS011;25998;46.604;13.610;2023-09-19T18:54:06;7.70;;;2.30;;
40286;SDS011;25998;46.604;13.610;2023-09-19T18:57:16;4.47;;;2.10;;
40286;SDS011;25998;46.604;13.610;2023-09-19T19:00:27;4.80;;;2.67;;
40286;SDS011;25998;46.604;13.610;2023-09-19T19:03:38;3.00;;;2.17;;
40286;SDS011;25998;46.604;13.610;2023-09-19T19:06:55;5.65;;;2.15;;
40286;SDS011;25998;46.604;13.610;2023-09-19T19:10:06;4.65;;;2.15;;
40286;SDS011;25998;46.604;13.610;2023-09-19T19:13:18;3.95;;;2.10;;
40286;SDS011;25998;46.604;13.610;2023-09-19T19:16:29;4.03;;;2.15;;
40286;SDS011;25998;46.604;13.610;2023-09-19T19:19:42;4.80;;;2.35;;
40286;SDS011;25998;46.604;13.610;2023-09-19T19:22:53;3.63;;;2.00;;
40286;SDS011;25998;46.604;13.610;2023-09-19T19:26:05;4.53;;;2.20;;
40286;SDS011;25998;46.604;13.610;2023-09-19T19:29:17;3.45;;;2.17;;
40286;SDS011;25998;46.604;13.610;2023-09-19T19:32:28;5.25;;;2.00;;
40286;SDS011;25998;46.604;13.610;2023-09-19T19:35:39;3.33;;;1.98;;
40286;SDS011;25998;46.604;13.610;2023-09-19T19:38:50;4.00;;;1.98;;
40286;SDS011;25998;46.604;13.610;2023-09-19T19:42:02;4.47;;;2.28;;
40286;SDS011;25998;46.604;13.610;2023-09-19T19:45:13;7.03;;;2.13;;